sensor_id;sensor_type;location;lat;lon;timestamp;P1;durP1;ratioP1;P2;durP2;ratioP2
22660;SDS011;11497;52.222;21.246;2022-09-24T00:01:47;47.80;;;27.17;;
22660;SDS011;11497;52.222;21.246;2022-09-24T00:04:16;54.25;;;30.00;;
22660;SDS011;11497;52.222;21.246;2022-09-24T00:06:45;47.00;;;26.38;;
22660;SDS011;11497;52.222;21.246;2022-09-24T00:09:15;45.55;;;26.38;;
22660;SDS011;11497;52.222;21.246;2022-09-24T00:14:16;43.15;;;26.13;;
22660;SDS011;11497;52.222;21.246;2022-09-24T00:16:44;45.58;;;25.90;;
22660;SDS011;11497;52.222;21.246;2022-09-24T00:19:12;47.63;;;24.45;;
22660;SDS011;11497;52.222;21.246;2022-09-24T00:21:40;43.97;;;25.65;;
22660;SDS011;11497;52.222;21.246;2022-09-24T00:24:09;46.38;;;27.20;;
22660;SDS011;11497;52.222;21.246;2022-09-24T00:26:59;46.35;;;25.30;;
22660;SDS011;11497;52.222;21.246;2022-09-24T00:29:28;46.47;;;27.10;;
22660;SDS011;11497;52.222;21.246;2022-09-24T00:32:00;48.38;;;26.92;;
22660;SDS011;11497;52.222;21.246;2022-09-24T00:34:28;48.35;;;26.20;;
22660;SDS011;11497;52.222;21.246;2022-09-24T00:36:56;46.42;;;26.20;;
22660;SDS011;11497;52.222;21.246;2022-09-24T00:39:25;46.50;;;26.42;;
22660;SDS011;11497;52.222;21.246;2022-09-24T00:41:53;47.55;;;25.50;;
22660;SDS011;11497;52.222;21.246;2022-09-24T00:47:14;43.65;;;25.33;;
22660;SDS011;11497;52.222;21.246;2022-09-24T00:49:47;45.92;;;24.77;;
22660;SDS011;11497;52.222;21.246;2022-09-24T00:52:16;46.63;;;25.23;;
22660;SDS011;11497;52.222;21.246;2022-09-24T00:54:45;49.40;;;26.92;;
22660;SDS011;11497;52.222;21.246;2022-09-24T00:57:13;44.40;;;25.00;;
22660;SDS011;11497;52.222;21.246;2022-09-24T00:59:41;45.13;;;24.17;;
22660;SDS011;11497;52.222;21.246;2022-09-24T01:02:10;41.78;;;24.85;;
22660;SDS011;11497;52.222;21.246;2022-09-24T01:04:39;44.92;;;23.88;;
22660;SDS011;11497;52.222;21.246;2022-09-24T01:07:07;41.58;;;23.77;;
22660;SDS011;11497;52.222;21.246;2022-09-24T01:09:34;41.53;;;23.00;;
22660;SDS011;11497;52.222;21.246;2022-09-24T01:18:08;39.15;;;23.20;;
22660;SDS011;11497;52.222;21.246;2022-09-24T01:21:22;41.20;;;23.50;;
22660;SDS011;11497;52.222;21.246;2022-09-24T01:27:02;40.13;;;22.63;;
22660;SDS011;11497;52.222;21.246;2022-09-24T01:32:33;41.58;;;21.45;;
22660;SDS011;11497;52.222;21.246;2022-09-24T01:35:16;38.10;;;21.23;;
22660;SDS011;11497;52.222;21.246;2022-09-24T01:38:01;38.53;;;22.48;;
22660;SDS011;11497;52.222;21.246;2022-09-24T01:40:34;36.70;;;21.60;;
22660;SDS011;11497;52.222;21.246;2022-09-24T01:43:06;36.08;;;20.48;;
22660;SDS011;11497;52.222;21.246;2022-09-24T01:45:35;35.67;;;20.73;;
22660;SDS011;11497;52.222;21.246;2022-09-24T01:48:05;36.28;;;22.38;;
22660;SDS011;11497;52.222;21.246;2022-09-24T01:50:39;37.28;;;21.73;;
22660;SDS011;11497;52.222;21.246;2022-09-24T01:53:36;47.58;;;24.20;;
22660;SDS011;11497;52.222;21.246;2022-09-24T01:56:41;62.40;;;27.50;;
22660;SDS011;11497;52.222;21.246;2022-09-24T01:59:17;66.90;;;28.10;;
22660;SDS011;11497;52.222;21.246;2022-09-24T02:04:30;54.55;;;24.80;;
22660;SDS011;11497;52.222;21.246;2022-09-24T02:07:05;56.10;;;26.90;;
22660;SDS011;11497;52.222;21.246;2022-09-24T02:09:40;51.58;;;25.25;;
22660;SDS011;11497;52.222;21.246;2022-09-24T02:12:24;47.08;;;24.90;;
22660;SDS011;11497;52.222;21.246;2022-09-24T02:15:09;48.22;;;23.23;;
22660;SDS011;11497;52.222;21.246;2022-09-24T02:17:47;47.90;;;24.38;;
22660;SDS011;11497;52.222;21.246;2022-09-24T02:20:21;47.38;;;23.48;;
22660;SDS011;11497;52.222;21.246;2022-09-24T02:22:51;49.75;;;23.60;;
22660;SDS011;11497;52.222;21.246;2022-09-24T02:25:34;50.50;;;24.60;;
22660;SDS011;11497;52.222;21.246;2022-09-24T02:28:13;47.95;;;23.98;;
22660;SDS011;11497;52.222;21.246;2022-09-24T02:30:41;53.33;;;23.55;;
22660;SDS011;11497;52.222;21.246;2022-09-24T02:33:14;51.42;;;24.30;;
22660;SDS011;11497;52.222;21.246;2022-09-24T02:36:01;49.20;;;22.80;;
22660;SDS011;11497;52.222;21.246;2022-09-24T02:38:29;48.22;;;22.83;;
22660;SDS011;11497;52.222;21.246;2022-09-24T02:40:57;47.65;;;21.85;;
22660;SDS011;11497;52.222;21.246;2022-09-24T02:43:25;40.97;;;20.58;;
22660;SDS011;11497;52.222;21.246;2022-09-24T02:45:53;46.33;;;21.15;;
22660;SDS011;11497;52.222;21.246;2022-09-24T02:48:21;46.88;;;21.60;;
22660;SDS011;11497;52.222;21.246;2022-09-24T02:50:48;42.78;;;21.15;;
22660;SDS011;11497;52.222;21.246;2022-09-24T02:53:17;46.92;;;21.92;;
22660;SDS011;11497;52.222;21.246;2022-09-24T02:55:44;49.55;;;20.73;;
22660;SDS011;11497;52.222;21.246;2022-09-24T02:58:12;43.53;;;20.77;;
22660;SDS011;11497;52.222;21.246;2022-09-24T03:00:40;46.72;;;21.85;;
22660;SDS011;11497;52.222;21.246;2022-09-24T03:03:08;43.53;;;20.95;;
22660;SDS011;11497;52.222;21.246;2022-09-24T03:05:35;38.05;;;20.65;;
22660;SDS011;11497;52.222;21.246;2022-09-24T03:08:03;45.40;;;21.63;;
22660;SDS011;11497;52.222;21.246;2022-09-24T03:10:32;48.70;;;20.67;;
22660;SDS011;11497;52.222;21.246;2022-09-24T03:13:01;39.72;;;20.30;;
22660;SDS011;11497;52.222;21.246;2022-09-24T03:15:29;45.75;;;19.85;;
22660;SDS011;11497;52.222;21.246;2022-09-24T03:17:57;36.42;;;19.00;;
22660;SDS011;11497;52.222;21.246;2022-09-24T03:20:24;38.40;;;18.50;;
22660;SDS011;11497;52.222;21.246;2022-09-24T03:22:52;38.05;;;18.20;;
22660;SDS011;11497;52.222;21.246;2022-09-24T03:25:20;36.88;;;18.25;;
22660;SDS011;11497;52.222;21.246;2022-09-24T03:27:48;35.35;;;17.77;;
22660;SDS011;11497;52.222;21.246;2022-09-24T03:30:16;34.95;;;16.73;;
22660;SDS011;11497;52.222;21.246;2022-09-24T03:33:02;34.05;;;17.13;;
22660;SDS011;11497;52.222;21.246;2022-09-24T03:35:30;27.08;;;14.85;;
22660;SDS011;11497;52.222;21.246;2022-09-24T03:37:58;29.58;;;14.75;;
22660;SDS011;11497;52.222;21.246;2022-09-24T03:40:25;26.75;;;14.55;;
22660;SDS011;11497;52.222;21.246;2022-09-24T03:42:53;26.27;;;14.27;;
22660;SDS011;11497;52.222;21.246;2022-09-24T03:45:21;22.23;;;14.20;;
22660;SDS011;11497;52.222;21.246;2022-09-24T03:47:49;22.55;;;13.85;;
22660;SDS011;11497;52.222;21.246;2022-09-24T03:50:16;25.60;;;14.27;;
22660;SDS011;11497;52.222;21.246;2022-09-24T03:52:44;23.00;;;13.25;;
22660;SDS011;11497;52.222;21.246;2022-09-24T03:55:12;19.83;;;13.27;;
22660;SDS011;11497;52.222;21.246;2022-09-24T03:57:39;21.33;;;13.52;;
22660;SDS011;11497;52.222;21.246;2022-09-24T04:00:07;20.65;;;13.07;;
22660;SDS011;11497;52.222;21.246;2022-09-24T04:02:36;25.33;;;15.10;;
22660;SDS011;11497;52.222;21.246;2022-09-24T04:05:05;25.88;;;15.15;;
22660;SDS011;11497;52.222;21.246;2022-09-24T04:07:33;27.58;;;16.02;;
22660;SDS011;11497;52.222;21.246;2022-09-24T04:10:01;31.60;;;16.35;;
22660;SDS011;11497;52.222;21.246;2022-09-24T04:12:29;27.33;;;16.13;;
22660;SDS011;11497;52.222;21.246;2022-09-24T04:14:57;30.02;;;15.82;;
22660;SDS011;11497;52.222;21.246;2022-09-24T04:17:25;36.33;;;18.25;;
22660;SDS011;11497;52.222;21.246;2022-09-24T04:19:54;34.90;;;18.35;;
22660;SDS011;11497;52.222;21.246;2022-09-24T04:22:27;36.95;;;19.15;;
22660;SDS011;11497;52.222;21.246;2022-09-24T04:24:55;32.15;;;18.15;;
22660;SDS011;11497;52.222;21.246;2022-09-24T04:27:23;34.42;;;19.50;;
22660;SDS011;11497;52.222;21.246;2022-09-24T04:29:51;37.63;;;20.75;;
22660;SDS011;11497;52.222;21.246;2022-09-24T04:32:19;37.95;;;19.80;;
22660;SDS011;11497;52.222;21.246;2022-09-24T04:34:47;37.20;;;20.50;;
22660;SDS011;11497;52.222;21.246;2022-09-24T04:37:15;44.25;;;22.00;;
22660;SDS011;11497;52.222;21.246;2022-09-24T04:39:42;36.85;;;21.95;;
22660;SDS011;11497;52.222;21.246;2022-09-24T04:42:14;34.47;;;19.58;;
22660;SDS011;11497;52.222;21.246;2022-09-24T04:44:43;35.67;;;19.65;;
22660;SDS011;11497;52.222;21.246;2022-09-24T04:47:13;32.97;;;20.48;;
22660;SDS011;11497;52.222;21.246;2022-09-24T04:49:41;32.80;;;20.20;;
22660;SDS011;11497;52.222;21.246;2022-09-24T04:52:11;33.35;;;18.90;;
22660;SDS011;11497;52.222;21.246;2022-09-24T04:54:41;30.63;;;18.85;;
22660;SDS011;11497;52.222;21.246;2022-09-24T04:57:10;30.60;;;19.80;;
22660;SDS011;11497;52.222;21.246;2022-09-24T04:59:42;35.65;;;22.45;;
22660;SDS011;11497;52.222;21.246;2022-09-24T05:02:10;43.72;;;23.77;;
22660;SDS011;11497;52.222;21.246;2022-09-24T05:04:38;41.70;;;25.92;;
22660;SDS011;11497;52.222;21.246;2022-09-24T05:07:06;37.95;;;24.60;;
22660;SDS011;11497;52.222;21.246;2022-09-24T05:09:34;41.17;;;25.85;;
22660;SDS011;11497;52.222;21.246;2022-09-24T05:12:03;46.47;;;25.13;;
22660;SDS011;11497;52.222;21.246;2022-09-24T05:14:31;40.53;;;23.60;;
22660;SDS011;11497;52.222;21.246;2022-09-24T05:16:59;38.38;;;22.63;;
22660;SDS011;11497;52.222;21.246;2022-09-24T05:19:26;38.10;;;23.42;;
22660;SDS011;11497;52.222;21.246;2022-09-24T05:21:54;37.60;;;24.38;;
22660;SDS011;11497;52.222;21.246;2022-09-24T05:24:22;39.17;;;23.85;;
22660;SDS011;11497;52.222;21.246;2022-09-24T05:26:49;37.33;;;23.10;;
22660;SDS011;11497;52.222;21.246;2022-09-24T05:29:37;41.38;;;24.60;;
22660;SDS011;11497;52.222;21.246;2022-09-24T05:32:07;43.83;;;26.52;;
22660;SDS011;11497;52.222;21.246;2022-09-24T05:34:38;42.63;;;26.13;;
22660;SDS011;11497;52.222;21.246;2022-09-24T05:37:07;46.15;;;27.60;;
22660;SDS011;11497;52.222;21.246;2022-09-24T05:39:35;44.10;;;27.65;;
22660;SDS011;11497;52.222;21.246;2022-09-24T05:42:03;43.83;;;27.65;;
22660;SDS011;11497;52.222;21.246;2022-09-24T05:44:31;45.83;;;28.30;;
22660;SDS011;11497;52.222;21.246;2022-09-24T05:46:59;41.35;;;26.88;;
22660;SDS011;11497;52.222;21.246;2022-09-24T05:49:27;45.38;;;29.17;;
22660;SDS011;11497;52.222;21.246;2022-09-24T05:51:54;44.92;;;27.90;;
22660;SDS011;11497;52.222;21.246;2022-09-24T05:54:22;38.55;;;26.42;;
22660;SDS011;11497;52.222;21.246;2022-09-24T05:56:50;40.95;;;26.40;;
22660;SDS011;11497;52.222;21.246;2022-09-24T05:59:18;37.50;;;26.30;;
22660;SDS011;11497;52.222;21.246;2022-09-24T06:01:46;38.58;;;26.25;;
22660;SDS011;11497;52.222;21.246;2022-09-24T06:04:14;42.65;;;27.38;;
22660;SDS011;11497;52.222;21.246;2022-09-24T06:06:42;44.78;;;27.05;;
22660;SDS011;11497;52.222;21.246;2022-09-24T06:09:10;36.63;;;25.45;;
22660;SDS011;11497;52.222;21.246;2022-09-24T06:11:38;41.30;;;25.27;;
22660;SDS011;11497;52.222;21.246;2022-09-24T06:14:06;42.72;;;25.98;;
22660;SDS011;11497;52.222;21.246;2022-09-24T06:16:35;39.47;;;24.48;;
22660;SDS011;11497;52.222;21.246;2022-09-24T06:19:03;36.25;;;24.95;;
22660;SDS011;11497;52.222;21.246;2022-09-24T06:21:31;38.63;;;24.27;;
22660;SDS011;11497;52.222;21.246;2022-09-24T06:23:59;37.88;;;24.67;;
22660;SDS011;11497;52.222;21.246;2022-09-24T06:26:27;37.42;;;23.30;;
22660;SDS011;11497;52.222;21.246;2022-09-24T06:28:54;35.17;;;24.05;;
22660;SDS011;11497;52.222;21.246;2022-09-24T06:31:29;35.45;;;22.73;;
22660;SDS011;11497;52.222;21.246;2022-09-24T06:33:57;33.20;;;23.23;;
22660;SDS011;11497;52.222;21.246;2022-09-24T06:36:25;36.05;;;23.98;;
22660;SDS011;11497;52.222;21.246;2022-09-24T06:38:53;35.03;;;23.63;;
22660;SDS011;11497;52.222;21.246;2022-09-24T06:41:22;37.65;;;23.42;;
22660;SDS011;11497;52.222;21.246;2022-09-24T06:43:52;37.40;;;24.48;;
22660;SDS011;11497;52.222;21.246;2022-09-24T06:46:20;38.35;;;24.58;;
22660;SDS011;11497;52.222;21.246;2022-09-24T06:48:51;34.15;;;24.70;;
22660;SDS011;11497;52.222;21.246;2022-09-24T06:51:20;36.72;;;23.67;;
22660;SDS011;11497;52.222;21.246;2022-09-24T06:53:51;39.70;;;24.75;;
22660;SDS011;11497;52.222;21.246;2022-09-24T06:56:19;31.52;;;23.70;;
22660;SDS011;11497;52.222;21.246;2022-09-24T06:58:47;31.88;;;22.30;;
22660;SDS011;11497;52.222;21.246;2022-09-24T07:01:14;32.45;;;23.30;;
22660;SDS011;11497;52.222;21.246;2022-09-24T07:03:42;33.10;;;22.90;;
22660;SDS011;11497;52.222;21.246;2022-09-24T07:06:10;35.38;;;23.70;;
22660;SDS011;11497;52.222;21.246;2022-09-24T07:08:38;32.00;;;23.17;;
22660;SDS011;11497;52.222;21.246;2022-09-24T07:11:05;33.30;;;22.73;;
22660;SDS011;11497;52.222;21.246;2022-09-24T07:13:34;33.17;;;22.55;;
22660;SDS011;11497;52.222;21.246;2022-09-24T07:16:02;32.85;;;22.42;;
22660;SDS011;11497;52.222;21.246;2022-09-24T07:18:30;32.78;;;22.20;;
22660;SDS011;11497;52.222;21.246;2022-09-24T07:20:57;28.40;;;20.92;;
22660;SDS011;11497;52.222;21.246;2022-09-24T07:23:25;29.02;;;20.55;;
22660;SDS011;11497;52.222;21.246;2022-09-24T07:25:54;28.58;;;21.40;;
22660;SDS011;11497;52.222;21.246;2022-09-24T07:28:23;28.83;;;20.20;;
22660;SDS011;11497;52.222;21.246;2022-09-24T07:30:58;27.30;;;19.52;;
22660;SDS011;11497;52.222;21.246;2022-09-24T07:33:26;29.48;;;19.33;;
22660;SDS011;11497;52.222;21.246;2022-09-24T07:35:56;25.77;;;19.83;;
22660;SDS011;11497;52.222;21.246;2022-09-24T07:38:24;28.58;;;19.27;;
22660;SDS011;11497;52.222;21.246;2022-09-24T07:40:55;27.75;;;18.02;;
22660;SDS011;11497;52.222;21.246;2022-09-24T07:43:24;24.63;;;17.83;;
22660;SDS011;11497;52.222;21.246;2022-09-24T07:45:52;28.35;;;18.10;;
22660;SDS011;11497;52.222;21.246;2022-09-24T07:48:21;20.35;;;16.63;;
22660;SDS011;11497;52.222;21.246;2022-09-24T07:50:50;22.45;;;15.90;;
22660;SDS011;11497;52.222;21.246;2022-09-24T07:53:18;19.48;;;15.52;;
22660;SDS011;11497;52.222;21.246;2022-09-24T07:55:47;20.20;;;15.02;;
22660;SDS011;11497;52.222;21.246;2022-09-24T07:58:15;19.58;;;14.65;;
22660;SDS011;11497;52.222;21.246;2022-09-24T08:00:42;20.02;;;14.52;;
22660;SDS011;11497;52.222;21.246;2022-09-24T08:03:11;21.40;;;14.93;;
22660;SDS011;11497;52.222;21.246;2022-09-24T08:05:42;18.77;;;13.75;;
22660;SDS011;11497;52.222;21.246;2022-09-24T08:08:11;18.67;;;13.75;;
22660;SDS011;11497;52.222;21.246;2022-09-24T08:10:39;14.43;;;11.48;;
22660;SDS011;11497;52.222;21.246;2022-09-24T08:13:08;15.15;;;11.60;;
22660;SDS011;11497;52.222;21.246;2022-09-24T08:15:36;17.05;;;11.07;;
22660;SDS011;11497;52.222;21.246;2022-09-24T08:18:04;15.27;;;11.13;;
22660;SDS011;11497;52.222;21.246;2022-09-24T08:20:32;13.88;;;10.93;;
22660;SDS011;11497;52.222;21.246;2022-09-24T08:23:02;17.13;;;11.65;;
22660;SDS011;11497;52.222;21.246;2022-09-24T08:25:33;16.35;;;10.80;;
22660;SDS011;11497;52.222;21.246;2022-09-24T08:28:01;13.70;;;10.10;;
22660;SDS011;11497;52.222;21.246;2022-09-24T08:30:33;19.20;;;11.63;;
22660;SDS011;11497;52.222;21.246;2022-09-24T08:33:01;12.57;;;8.80;;
22660;SDS011;11497;52.222;21.246;2022-09-24T08:35:31;12.18;;;7.63;;
22660;SDS011;11497;52.222;21.246;2022-09-24T08:38:00;10.80;;;8.27;;
22660;SDS011;11497;52.222;21.246;2022-09-24T08:40:30;19.10;;;14.15;;
22660;SDS011;11497;52.222;21.246;2022-09-24T08:45:56;10.00;;;7.55;;
22660;SDS011;11497;52.222;21.246;2022-09-24T08:48:46;9.02;;;8.02;;
22660;SDS011;11497;52.222;21.246;2022-09-24T08:51:17;11.82;;;7.10;;
22660;SDS011;11497;52.222;21.246;2022-09-24T08:53:57;7.10;;;5.80;;
22660;SDS011;11497;52.222;21.246;2022-09-24T08:56:44;7.70;;;6.00;;
22660;SDS011;11497;52.222;21.246;2022-09-24T09:07:37;6.55;;;4.45;;
22660;SDS011;11497;52.222;21.246;2022-09-24T09:10:28;3.67;;;3.08;;
22660;SDS011;11497;52.222;21.246;2022-09-24T09:15:42;6.00;;;4.38;;
22660;SDS011;11497;52.222;21.246;2022-09-24T09:21:17;8.93;;;2.90;;
22660;SDS011;11497;52.222;21.246;2022-09-24T09:23:52;3.53;;;3.03;;
22660;SDS011;11497;52.222;21.246;2022-09-24T09:26:25;5.35;;;2.72;;
22660;SDS011;11497;52.222;21.246;2022-09-24T09:28:55;3.38;;;2.88;;
22660;SDS011;11497;52.222;21.246;2022-09-24T09:42:37;4.05;;;3.20;;
22660;SDS011;11497;52.222;21.246;2022-09-24T09:47:53;7.22;;;4.30;;
22660;SDS011;11497;52.222;21.246;2022-09-24T09:50:33;6.72;;;4.50;;
22660;SDS011;11497;52.222;21.246;2022-09-24T09:53:30;9.70;;;5.90;;
22660;SDS011;11497;52.222;21.246;2022-09-24T09:55:59;4.72;;;3.55;;
22660;SDS011;11497;52.222;21.246;2022-09-24T09:59:05;5.00;;;3.85;;
22660;SDS011;11497;52.222;21.246;2022-09-24T10:01:33;6.78;;;4.00;;
22660;SDS011;11497;52.222;21.246;2022-09-24T10:04:03;5.55;;;4.72;;
22660;SDS011;11497;52.222;21.246;2022-09-24T10:06:34;6.50;;;4.72;;
22660;SDS011;11497;52.222;21.246;2022-09-24T10:09:06;6.13;;;4.80;;
22660;SDS011;11497;52.222;21.246;2022-09-24T10:11:47;7.07;;;4.50;;
22660;SDS011;11497;52.222;21.246;2022-09-24T10:14:15;8.95;;;5.35;;
22660;SDS011;11497;52.222;21.246;2022-09-24T10:16:45;7.20;;;4.97;;
22660;SDS011;11497;52.222;21.246;2022-09-24T10:21:47;8.02;;;5.20;;
22660;SDS011;11497;52.222;21.246;2022-09-24T10:24:20;7.80;;;5.55;;
22660;SDS011;11497;52.222;21.246;2022-09-24T10:26:51;8.43;;;5.65;;
22660;SDS011;11497;52.222;21.246;2022-09-24T10:32:15;8.95;;;5.32;;
22660;SDS011;11497;52.222;21.246;2022-09-24T10:34:58;4.72;;;3.15;;
22660;SDS011;11497;52.222;21.246;2022-09-24T10:37:28;5.07;;;3.28;;
22660;SDS011;11497;52.222;21.246;2022-09-24T10:40:19;3.28;;;2.17;;
22660;SDS011;11497;52.222;21.246;2022-09-24T10:43:00;3.53;;;2.33;;
22660;SDS011;11497;52.222;21.246;2022-09-24T10:48:38;7.50;;;2.20;;
22660;SDS011;11497;52.222;21.246;2022-09-24T10:57:11;4.43;;;2.42;;
22660;SDS011;11497;52.222;21.246;2022-09-24T11:09:04;2.88;;;2.53;;
22660;SDS011;11497;52.222;21.246;2022-09-24T11:17:23;6.20;;;2.70;;
22660;SDS011;11497;52.222;21.246;2022-09-24T11:25:39;4.18;;;2.90;;
22660;SDS011;11497;52.222;21.246;2022-09-24T11:42:53;5.45;;;3.03;;
22660;SDS011;11497;52.222;21.246;2022-09-24T11:48:20;5.28;;;3.03;;
22660;SDS011;11497;52.222;21.246;2022-09-24T11:56:27;3.63;;;2.97;;
22660;SDS011;11497;52.222;21.246;2022-09-24T12:01:53;4.07;;;2.90;;
22660;SDS011;11497;52.222;21.246;2022-09-24T12:04:29;3.90;;;2.97;;
22660;SDS011;11497;52.222;21.246;2022-09-24T12:12:51;3.22;;;2.58;;
22660;SDS011;11497;52.222;21.246;2022-09-24T12:15:29;4.00;;;3.20;;
22660;SDS011;11497;52.222;21.246;2022-09-24T12:18:20;3.97;;;3.20;;
22660;SDS011;11497;52.222;21.246;2022-09-24T12:20:54;3.50;;;3.17;;
22660;SDS011;11497;52.222;21.246;2022-09-24T12:23:31;6.57;;;3.17;;
22660;SDS011;11497;52.222;21.246;2022-09-24T12:26:05;3.75;;;2.85;;
22660;SDS011;11497;52.222;21.246;2022-09-24T12:28:37;4.63;;;3.10;;
22660;SDS011;11497;52.222;21.246;2022-09-24T12:31:48;7.03;;;3.38;;
22660;SDS011;11497;52.222;21.246;2022-09-24T12:34:53;5.30;;;3.33;;
22660;SDS011;11497;52.222;21.246;2022-09-24T12:37:48;3.83;;;3.00;;
22660;SDS011;11497;52.222;21.246;2022-09-24T12:43:22;3.20;;;2.70;;
22660;SDS011;11497;52.222;21.246;2022-09-24T12:46:00;3.90;;;2.70;;
22660;SDS011;11497;52.222;21.246;2022-09-24T12:48:31;3.55;;;2.83;;
22660;SDS011;11497;52.222;21.246;2022-09-24T12:51:04;8.00;;;3.25;;
22660;SDS011;11497;52.222;21.246;2022-09-24T12:53:37;3.40;;;3.10;;
22660;SDS011;11497;52.222;21.246;2022-09-24T12:56:08;3.88;;;2.50;;
22660;SDS011;11497;52.222;21.246;2022-09-24T12:58:43;3.80;;;2.13;;
22660;SDS011;11497;52.222;21.246;2022-09-24T13:01:30;1.95;;;1.73;;
22660;SDS011;11497;52.222;21.246;2022-09-24T13:04:01;2.13;;;1.90;;
22660;SDS011;11497;52.222;21.246;2022-09-24T13:06:50;3.40;;;1.95;;
22660;SDS011;11497;52.222;21.246;2022-09-24T13:09:30;2.08;;;1.73;;
22660;SDS011;11497;52.222;21.246;2022-09-24T13:12:02;3.20;;;1.60;;
22660;SDS011;11497;52.222;21.246;2022-09-24T13:14:40;2.25;;;1.90;;
22660;SDS011;11497;52.222;21.246;2022-09-24T13:17:14;4.25;;;2.00;;
22660;SDS011;11497;52.222;21.246;2022-09-24T13:19:44;2.83;;;2.00;;
22660;SDS011;11497;52.222;21.246;2022-09-24T13:22:24;1.70;;;1.60;;
22660;SDS011;11497;52.222;21.246;2022-09-24T13:25:03;2.70;;;1.73;;
22660;SDS011;11497;52.222;21.246;2022-09-24T13:27:35;3.05;;;1.75;;
22660;SDS011;11497;52.222;21.246;2022-09-24T13:32:50;2.35;;;1.92;;
22660;SDS011;11497;52.222;21.246;2022-09-24T13:35:27;2.65;;;1.80;;
22660;SDS011;11497;52.222;21.246;2022-09-24T13:38:07;2.95;;;1.80;;
22660;SDS011;11497;52.222;21.246;2022-09-24T13:40:48;2.10;;;1.90;;
22660;SDS011;11497;52.222;21.246;2022-09-24T13:46:24;2.10;;;1.90;;
22660;SDS011;11497;52.222;21.246;2022-09-24T13:48:59;2.85;;;2.17;;
22660;SDS011;11497;52.222;21.246;2022-09-24T13:51:32;1.95;;;1.80;;
22660;SDS011;11497;52.222;21.246;2022-09-24T13:54:14;3.42;;;2.40;;
22660;SDS011;11497;52.222;21.246;2022-09-24T13:59:34;5.25;;;2.10;;
22660;SDS011;11497;52.222;21.246;2022-09-24T14:02:03;2.42;;;2.00;;
22660;SDS011;11497;52.222;21.246;2022-09-24T14:04:51;2.10;;;1.75;;
22660;SDS011;11497;52.222;21.246;2022-09-24T14:07:21;2.33;;;1.90;;
22660;SDS011;11497;52.222;21.246;2022-09-24T14:09:49;2.30;;;1.90;;
22660;SDS011;11497;52.222;21.246;2022-09-24T14:12:31;3.20;;;1.90;;
22660;SDS011;11497;52.222;21.246;2022-09-24T14:14:59;3.05;;;1.80;;
22660;SDS011;11497;52.222;21.246;2022-09-24T14:17:30;2.30;;;1.90;;
22660;SDS011;11497;52.222;21.246;2022-09-24T14:19:58;3.67;;;1.90;;
22660;SDS011;11497;52.222;21.246;2022-09-24T14:22:27;3.80;;;1.95;;
22660;SDS011;11497;52.222;21.246;2022-09-24T14:25:02;3.90;;;2.15;;
22660;SDS011;11497;52.222;21.246;2022-09-24T14:27:39;4.05;;;2.35;;
22660;SDS011;11497;52.222;21.246;2022-09-24T14:30:30;3.65;;;2.40;;
22660;SDS011;11497;52.222;21.246;2022-09-24T14:33:10;3.67;;;2.50;;
22660;SDS011;11497;52.222;21.246;2022-09-24T14:35:44;4.03;;;2.50;;
22660;SDS011;11497;52.222;21.246;2022-09-24T14:38:16;3.42;;;2.80;;
22660;SDS011;11497;52.222;21.246;2022-09-24T14:40:51;4.50;;;2.60;;
22660;SDS011;11497;52.222;21.246;2022-09-24T14:46:04;4.57;;;2.78;;
22660;SDS011;11497;52.222;21.246;2022-09-24T14:48:35;3.15;;;2.60;;
22660;SDS011;11497;52.222;21.246;2022-09-24T14:51:03;4.82;;;2.88;;
22660;SDS011;11497;52.222;21.246;2022-09-24T14:53:34;4.80;;;2.60;;
22660;SDS011;11497;52.222;21.246;2022-09-24T14:56:46;5.13;;;2.40;;
22660;SDS011;11497;52.222;21.246;2022-09-24T14:58:56;4.43;;;2.40;;
22660;SDS011;11497;52.222;21.246;2022-09-24T15:01:29;2.97;;;2.63;;
22660;SDS011;11497;52.222;21.246;2022-09-24T15:06:29;3.03;;;2.50;;
22660;SDS011;11497;52.222;21.246;2022-09-24T15:09:06;3.35;;;2.70;;
22660;SDS011;11497;52.222;21.246;2022-09-24T15:11:49;3.75;;;3.08;;
22660;SDS011;11497;52.222;21.246;2022-09-24T15:14:21;5.15;;;2.80;;
22660;SDS011;11497;52.222;21.246;2022-09-24T15:17:06;4.03;;;2.78;;
22660;SDS011;11497;52.222;21.246;2022-09-24T15:19:44;4.78;;;2.63;;
22660;SDS011;11497;52.222;21.246;2022-09-24T15:22:13;6.15;;;2.78;;
22660;SDS011;11497;52.222;21.246;2022-09-24T15:24:41;5.10;;;2.30;;
22660;SDS011;11497;52.222;21.246;2022-09-24T15:27:18;4.68;;;2.78;;
22660;SDS011;11497;52.222;21.246;2022-09-24T15:29:55;2.55;;;2.30;;
22660;SDS011;11497;52.222;21.246;2022-09-24T15:32:26;4.25;;;2.42;;
22660;SDS011;11497;52.222;21.246;2022-09-24T15:34:56;3.42;;;2.63;;
22660;SDS011;11497;52.222;21.246;2022-09-24T15:37:25;5.47;;;2.65;;
22660;SDS011;11497;52.222;21.246;2022-09-24T15:39:56;4.43;;;2.63;;
22660;SDS011;11497;52.222;21.246;2022-09-24T15:42:30;5.82;;;2.72;;
22660;SDS011;11497;52.222;21.246;2022-09-24T15:44:58;2.90;;;2.55;;
22660;SDS011;11497;52.222;21.246;2022-09-24T15:47:25;3.60;;;2.90;;
22660;SDS011;11497;52.222;21.246;2022-09-24T15:49:54;3.92;;;3.03;;
22660;SDS011;11497;52.222;21.246;2022-09-24T15:52:25;5.75;;;3.53;;
22660;SDS011;11497;52.222;21.246;2022-09-24T15:54:55;4.47;;;3.10;;
22660;SDS011;11497;52.222;21.246;2022-09-24T15:57:26;5.15;;;3.10;;
22660;SDS011;11497;52.222;21.246;2022-09-24T15:59:54;4.07;;;2.75;;
22660;SDS011;11497;52.222;21.246;2022-09-24T16:02:22;4.00;;;3.20;;
22660;SDS011;11497;52.222;21.246;2022-09-24T16:04:57;4.22;;;3.15;;
22660;SDS011;11497;52.222;21.246;2022-09-24T16:07:30;6.32;;;3.40;;
22660;SDS011;11497;52.222;21.246;2022-09-24T16:09:57;4.65;;;3.40;;
22660;SDS011;11497;52.222;21.246;2022-09-24T16:12:25;4.82;;;3.45;;
22660;SDS011;11497;52.222;21.246;2022-09-24T16:14:54;6.90;;;3.78;;
22660;SDS011;11497;52.222;21.246;2022-09-24T16:17:26;10.13;;;3.85;;
22660;SDS011;11497;52.222;21.246;2022-09-24T16:19:54;7.43;;;4.22;;
22660;SDS011;11497;52.222;21.246;2022-09-24T16:22:22;10.18;;;5.32;;
22660;SDS011;11497;52.222;21.246;2022-09-24T16:24:50;15.60;;;9.40;;
22660;SDS011;11497;52.222;21.246;2022-09-24T16:27:19;27.77;;;15.65;;
22660;SDS011;11497;52.222;21.246;2022-09-24T16:29:47;34.63;;;17.98;;
22660;SDS011;11497;52.222;21.246;2022-09-24T16:32:15;30.52;;;18.52;;
22660;SDS011;11497;52.222;21.246;2022-09-24T16:34:43;29.85;;;17.90;;
22660;SDS011;11497;52.222;21.246;2022-09-24T16:37:11;29.42;;;15.68;;
22660;SDS011;11497;52.222;21.246;2022-09-24T16:39:40;25.88;;;12.75;;
22660;SDS011;11497;52.222;21.246;2022-09-24T16:42:07;21.13;;;12.05;;
22660;SDS011;11497;52.222;21.246;2022-09-24T16:44:35;16.88;;;10.57;;
22660;SDS011;11497;52.222;21.246;2022-09-24T16:47:03;18.70;;;9.52;;
22660;SDS011;11497;52.222;21.246;2022-09-24T16:49:31;18.92;;;10.10;;
22660;SDS011;11497;52.222;21.246;2022-09-24T16:52:00;23.90;;;15.23;;
22660;SDS011;11497;52.222;21.246;2022-09-24T16:54:28;24.08;;;12.95;;
22660;SDS011;11497;52.222;21.246;2022-09-24T16:56:56;29.77;;;14.50;;
22660;SDS011;11497;52.222;21.246;2022-09-24T16:59:24;26.42;;;14.52;;
22660;SDS011;11497;52.222;21.246;2022-09-24T17:01:52;37.65;;;25.95;;